Time;durP1;ratioP1;P1;durP2;ratioP2;P2;SDS_P1;SDS_P2;PMS_P1;PMS_P2;Temp;Humidity;BMP_temperature;BMP_pressure;BME280_temperature;BME280_humidity;BME280_pressure;Samples;Min_cycle;Max_cycle;Signal;HPM_P1;HPM_P2
2021/06/06 00:00:14;;;;;;;;;;;17.20;89.40;;;;;;4302451;33;20010;-81
2021/06/06 00:02:44;;;;;;;;;;;17.10;89.40;;;;;;4312887;33;22425;-81
2021/06/06 00:05:13;;;;;;;;;;;17.10;89.40;;;;;;4278094;33;20018;-81
2021/06/06 00:07:40;;;;;;;;;;;17.20;89.50;;;;;;4277658;33;20006;-81
2021/06/06 00:10:13;;;;;;;;;;;17.10;89.30;;;;;;4302074;33;20022;-81
2021/06/06 00:12:41;;;;;;;;;;;17.10;89.20;;;;;;4302577;33;20014;-81
2021/06/06 00:15:10;;;;;;;;;;;17.10;89.10;;;;;;4301718;33;44700;-80
2021/06/06 00:17:40;;;;;;;;;;;17.10;89.00;;;;;;4302512;33;20022;-81
2021/06/06 00:20:09;;;;;;;;;;;17.10;88.90;;;;;;4301440;33;20095;-80
2021/06/06 00:22:36;;;;;;;;;;;17.10;88.80;;;;;;4301693;33;43154;-80
2021/06/06 00:25:07;;;;;;;;;;;17.10;88.80;;;;;;4302847;33;20431;-80
2021/06/06 00:27:34;;;;;;;;;;;17.10;88.80;;;;;;4301757;33;44710;-80
2021/06/06 00:30:01;;;;;;;;;;;17.10;88.80;;;;;;4301607;33;43309;-81
2021/06/06 00:32:28;;;;;;;;;;;17.00;88.70;;;;;;4287963;33;43571;-80
2021/06/06 00:34:57;;;;;;;;;;;17.10;88.70;;;;;;4289143;33;31995;-80
2021/06/06 00:37:25;;;;;;;;;;;17.10;88.60;;;;;;4288568;33;44723;-80
2021/06/06 00:39:54;;;;;;;;;;;17.00;88.60;;;;;;4288224;33;45000;-80
2021/06/06 00:42:22;;;;;;;;;;;17.00;88.60;;;;;;4288493;33;41918;-80
2021/06/06 00:44:49;;;;;;;;;;;17.00;88.60;;;;;;4300348;33;43674;-80
2021/06/06 00:47:17;;;;;;;;;;;17.00;88.60;;;;;;4301048;33;42255;-80
2021/06/06 00:49:47;;;;;;;;;;;17.00;88.60;;;;;;4301079;33;44698;-81
2021/06/06 00:52:20;;;;;;;;;;;17.00;88.50;;;;;;4301224;33;44288;-80
2021/06/06 00:54:47;;;;;;;;;;;17.00;88.40;;;;;;4288258;33;43676;-80
2021/06/06 00:57:22;;;;;;;;;;;17.00;88.30;;;;;;4300921;33;44445;-80
2021/06/06 01:00:03;;;;;;;;;;;17.00;88.30;;;;;;4301108;33;44681;-80
2021/06/06 01:02:30;;;;;;;;;;;17.00;88.30;;;;;;4301375;33;43355;-81
2021/06/06 01:04:57;;;;;;;;;;;17.00;88.30;;;;;;4288276;33;43294;-80
2021/06/06 01:07:24;;;;;;;;;;;17.00;88.30;;;;;;4275917;33;43555;-81
2021/06/06 01:09:51;;;;;;;;;;;17.00;88.20;;;;;;4302634;33;20407;-81
2021/06/06 01:12:23;;;;;;;;;;;17.00;88.20;;;;;;4301495;33;44899;-81
2021/06/06 01:14:56;;;;;;;;;;;17.00;88.20;;;;;;4302475;33;20010;-81
2021/06/06 01:17:34;;;;;;;;;;;17.00;88.10;;;;;;4277655;33;20003;-80
2021/06/06 01:20:09;;;;;;;;;;;17.00;88.10;;;;;;4289492;33;20422;-80
2021/06/06 01:22:47;;;;;;;;;;;16.90;88.00;;;;;;4301350;33;19999;-80
2021/06/06 01:25:28;;;;;;;;;;;16.90;88.00;;;;;;4302418;33;20006;-80
2021/06/06 01:28:02;;;;;;;;;;;17.00;88.10;;;;;;4289105;33;20753;-80
2021/06/06 01:30:31;;;;;;;;;;;17.00;88.10;;;;;;4302549;33;20133;-80
2021/06/06 01:33:06;;;;;;;;;;;16.90;88.00;;;;;;4288822;33;20042;-80
2021/06/06 01:35:38;;;;;;;;;;;16.90;88.10;;;;;;4302412;33;20011;-80
2021/06/06 01:38:10;;;;;;;;;;;16.90;88.00;;;;;;4288292;33;20263;-80
2021/06/06 01:40:38;;;;;;;;;;;16.90;88.20;;;;;;4289014;33;20017;-80
2021/06/06 01:43:07;;;;;;;;;;;16.90;88.10;;;;;;4288339;33;20057;-80
2021/06/06 01:45:41;;;;;;;;;;;16.90;88.00;;;;;;4302020;33;20057;-80
2021/06/06 01:48:11;;;;;;;;;;;16.90;88.00;;;;;;4302637;33;20021;-80
2021/06/06 01:50:46;;;;;;;;;;;17.00;88.10;;;;;;4301944;33;20016;-80
2021/06/06 01:53:15;;;;;;;;;;;16.90;88.00;;;;;;4301793;33;20455;-80
2021/06/06 01:55:48;;;;;;;;;;;16.90;88.00;;;;;;4302785;33;20006;-80
2021/06/06 01:58:17;;;;;;;;;;;16.90;88.00;;;;;;4291919;33;20020;-80
2021/06/06 02:00:47;;;;;;;;;;;16.90;88.00;;;;;;4304916;33;20026;-80
2021/06/06 02:03:14;;;;;;;;;;;16.90;88.00;;;;;;4304250;33;20379;-80
2021/06/06 02:05:42;;;;;;;;;;;17.00;88.00;;;;;;4290972;33;20014;-80
2021/06/06 02:08:13;;;;;;;;;;;16.90;88.00;;;;;;4304853;33;20422;-80
2021/06/06 02:10:44;;;;;;;;;;;16.90;88.00;;;;;;4304394;33;20044;-81
2021/06/06 02:13:21;;;;;;;;;;;16.90;88.00;;;;;;4291687;33;20447;-80
2021/06/06 02:15:58;;;;;;;;;;;16.90;88.00;;;;;;4304359;33;20021;-81
2021/06/06 02:18:26;;;;;;;;;;;16.90;88.00;;;;;;4291152;33;20030;-81
2021/06/06 02:20:54;;;;;;;;;;;16.90;88.00;;;;;;4304071;33;20355;-81
2021/06/06 02:23:27;;;;;;;;;;;16.80;88.10;;;;;;4304303;33;20025;-81
2021/06/06 02:26:02;;;;;;;;;;;16.80;88.10;;;;;;4291058;33;20477;-80
2021/06/06 02:28:39;;;;;;;;;;;16.80;88.10;;;;;;4278751;33;20160;-81
2021/06/06 02:31:06;;;;;;;;;;;16.80;88.10;;;;;;4291182;33;20017;-81
2021/06/06 02:33:39;;;;;;;;;;;16.80;88.20;;;;;;4290744;33;20437;-81
2021/06/06 02:36:11;;;;;;;;;;;16.80;88.20;;;;;;4290808;33;20006;-80
2021/06/06 02:38:44;;;;;;;;;;;16.80;88.30;;;;;;4291118;33;20461;-81
2021/06/06 02:41:14;;;;;;;;;;;16.80;88.30;;;;;;4303799;33;20002;-80
2021/06/06 02:44:01;;;;;;;;;;;16.80;88.40;;;;;;4302035;33;38906;-80
2021/06/06 02:46:29;;;;;;;;;;;16.80;88.50;;;;;;4293543;33;20010;-81
2021/06/06 02:49:01;;;;;;;;;;;16.80;88.60;;;;;;4303394;33;20426;-81
2021/06/06 02:51:28;;;;;;;;;;;16.80;88.50;;;;;;4303242;33;34174;-81
2021/06/06 02:54:03;;;;;;;;;;;16.80;88.60;;;;;;4290213;33;23795;-81
2021/06/06 02:56:33;;;;;;;;;;;16.70;88.60;;;;;;4302630;33;43354;-81
2021/06/06 02:59:06;;;;;;;;;;;16.70;88.60;;;;;;4302975;33;43030;-81
2021/06/06 03:01:36;;;;;;;;;;;16.70;88.80;;;;;;4302862;33;33809;-80
2021/06/06 03:04:05;;;;;;;;;;;16.70;88.80;;;;;;4301635;33;30657;-81
2021/06/06 03:06:34;;;;;;;;;;;16.70;88.80;;;;;;4288788;33;39512;-81
2021/06/06 03:09:04;;;;;;;;;;;16.70;88.80;;;;;;4288687;33;44719;-81
2021/06/06 03:11:31;;;;;;;;;;;16.70;88.70;;;;;;4303140;33;33895;-80
2021/06/06 03:14:07;;;;;;;;;;;16.70;88.80;;;;;;4302696;33;43632;-81
2021/06/06 03:16:37;;;;;;;;;;;16.70;88.80;;;;;;4302901;33;35725;-81
2021/06/06 03:19:06;;;;;;;;;;;16.70;88.80;;;;;;4302904;33;43409;-81
2021/06/06 03:21:35;;;;;;;;;;;16.70;88.90;;;;;;4290225;33;21338;-81
2021/06/06 03:24:09;;;;;;;;;;;16.70;88.90;;;;;;4302173;33;44695;-81
2021/06/06 03:26:38;;;;;;;;;;;16.70;88.90;;;;;;4301427;33;44376;-81
2021/06/06 03:29:06;;;;;;;;;;;16.70;88.90;;;;;;4290347;33;20009;-80
2021/06/06 03:31:39;;;;;;;;;;;16.70;88.90;;;;;;4303334;33;20032;-80
2021/06/06 03:34:06;;;;;;;;;;;16.70;88.90;;;;;;4277203;33;45097;-81
2021/06/06 03:36:38;;;;;;;;;;;16.70;89.00;;;;;;4303367;33;20018;-80
2021/06/06 03:39:11;;;;;;;;;;;16.70;89.00;;;;;;4289117;33;43599;-80
2021/06/06 03:41:38;;;;;;;;;;;16.60;88.90;;;;;;4303005;33;20007;-80
2021/06/06 03:44:08;;;;;;;;;;;16.60;88.90;;;;;;4289452;33;22295;-80
2021/06/06 03:46:37;;;;;;;;;;;16.60;89.10;;;;;;4289015;33;45093;-80
2021/06/06 03:49:05;;;;;;;;;;;16.60;89.10;;;;;;4301790;33;38128;-80
2021/06/06 03:51:32;;;;;;;;;;;16.60;89.10;;;;;;4289179;33;42385;-80
2021/06/06 03:54:00;;;;;;;;;;;16.60;89.20;;;;;;4301907;33;43570;-80
2021/06/06 03:56:27;;;;;;;;;;;16.50;89.20;;;;;;4303086;33;20074;-80
2021/06/06 03:58:57;;;;;;;;;;;16.60;89.30;;;;;;4278154;33;20351;-80
2021/06/06 04:01:24;;;;;;;;;;;16.50;89.20;;;;;;4301420;33;44335;-80
2021/06/06 04:03:52;;;;;;;;;;;16.50;89.30;;;;;;4288293;33;44854;-80
2021/06/06 04:06:22;;;;;;;;;;;16.50;89.30;;;;;;4302850;33;20018;-81
2021/06/06 04:08:50;;;;;;;;;;;16.50;89.40;;;;;;4301431;33;43557;-81
2021/06/06 04:11:17;;;;;;;;;;;16.50;89.30;;;;;;4302432;33;24542;-81
2021/06/06 04:13:44;;;;;;;;;;;16.40;89.40;;;;;;4301712;33;44259;-80
2021/06/06 04:16:11;;;;;;;;;;;16.40;89.60;;;;;;4301310;33;42773;-81
2021/06/06 04:18:41;;;;;;;;;;;16.40;89.60;;;;;;4288497;33;35588;-80
2021/06/06 04:21:12;;;;;;;;;;;16.40;89.60;;;;;;4277520;33;20033;-80
2021/06/06 04:23:39;;;;;;;;;;;16.50;89.70;;;;;;4288888;33;44691;-81
2021/06/06 04:26:07;;;;;;;;;;;16.50;89.70;;;;;;4301851;33;42484;-80
2021/06/06 04:28:37;;;;;;;;;;;16.40;89.60;;;;;;4288916;33;20014;-81
2021/06/06 04:31:09;;;;;;;;;;;16.40;89.60;;;;;;4277591;33;26163;-80
2021/06/06 04:33:37;;;;;;;;;;;16.40;89.70;;;;;;4288499;33;38002;-81
2021/06/06 04:36:04;;;;;;;;;;;16.40;89.80;;;;;;4301732;33;44309;-81
2021/06/06 04:38:32;;;;;;;;;;;16.40;89.70;;;;;;4301340;33;20073;-81
2021/06/06 04:41:01;;;;;;;;;;;16.40;89.80;;;;;;4300579;33;43624;-81
2021/06/06 04:43:28;;;;;;;;;;;16.40;89.90;;;;;;4289339;33;20006;-81
2021/06/06 04:45:57;;;;;;;;;;;16.40;90.00;;;;;;4302426;33;20367;-81
2021/06/06 04:48:27;;;;;;;;;;;16.40;89.90;;;;;;4288147;33;42694;-81
2021/06/06 04:50:59;;;;;;;;;;;16.40;89.80;;;;;;4301421;33;42292;-81
2021/06/06 04:53:26;;;;;;;;;;;16.40;89.80;;;;;;4287677;33;45205;-81
2021/06/06 04:55:56;;;;;;;;;;;16.40;89.80;;;;;;4302221;33;20029;-81
2021/06/06 04:58:24;;;;;;;;;;;16.30;89.90;;;;;;4288621;33;43358;-81
2021/06/06 05:00:51;;;;;;;;;;;16.40;90.00;;;;;;4288578;33;43518;-81
2021/06/06 05:03:19;;;;;;;;;;;16.30;90.00;;;;;;4287663;33;44163;-81
2021/06/06 05:05:46;;;;;;;;;;;16.30;90.00;;;;;;4288174;33;28935;-81
2021/06/06 05:08:17;;;;;;;;;;;16.30;90.00;;;;;;4301595;33;44230;-81
2021/06/06 05:10:45;;;;;;;;;;;16.30;90.00;;;;;;4288454;33;43448;-80
2021/06/06 05:13:12;;;;;;;;;;;16.30;90.10;;;;;;4301135;33;43238;-81
2021/06/06 05:15:39;;;;;;;;;;;16.30;90.10;;;;;;4288346;33;44675;-81
2021/06/06 05:18:10;;;;;;;;;;;16.30;90.10;;;;;;4288316;33;44748;-81
2021/06/06 05:20:39;;;;;;;;;;;16.30;90.10;;;;;;4288055;33;45322;-81
2021/06/06 05:23:06;;;;;;;;;;;16.30;90.10;;;;;;4301379;33;42870;-81
2021/06/06 05:25:42;;;;;;;;;;;16.30;90.10;;;;;;4302423;33;20010;-81
2021/06/06 05:28:11;;;;;;;;;;;16.30;90.10;;;;;;4300054;33;42671;-81
2021/06/06 05:30:40;;;;;;;;;;;16.30;90.10;;;;;;4288952;33;44981;-81
2021/06/06 05:33:11;;;;;;;;;;;16.30;90.10;;;;;;4290887;33;43244;-81
2021/06/06 05:35:39;;;;;;;;;;;16.30;90.10;;;;;;4304583;33;20539;-81
2021/06/06 05:38:07;;;;;;;;;;;16.30;90.20;;;;;;4304169;33;35331;-80
2021/06/06 05:40:35;;;;;;;;;;;16.30;90.20;;;;;;4304013;33;43554;-81
2021/06/06 05:43:03;;;;;;;;;;;16.30;90.10;;;;;;4303797;33;42637;-80
2021/06/06 05:45:30;;;;;;;;;;;16.30;90.10;;;;;;4303337;33;44771;-80
2021/06/06 05:48:00;;;;;;;;;;;16.30;90.20;;;;;;4279196;33;23678;-80
2021/06/06 05:50:29;;;;;;;;;;;16.30;90.50;;;;;;4290841;33;36834;-80
2021/06/06 05:53:02;;;;;;;;;;;16.20;90.20;;;;;;4303457;33;43551;-80
2021/06/06 05:55:32;;;;;;;;;;;16.30;90.20;;;;;;4302527;33;44860;-80
2021/06/06 05:57:59;;;;;;;;;;;16.30;90.20;;;;;;4303437;33;44647;-79
2021/06/06 06:00:32;;;;;;;;;;;16.30;90.30;;;;;;4303051;33;43286;-80
2021/06/06 06:02:59;;;;;;;;;;;16.30;90.30;;;;;;4303412;33;39661;-80
2021/06/06 06:05:29;;;;;;;;;;;16.30;90.30;;;;;;4304490;33;20014;-80
2021/06/06 06:07:57;;;;;;;;;;;16.20;90.30;;;;;;4302513;33;43507;-80
2021/06/06 06:10:27;;;;;;;;;;;16.20;90.30;;;;;;4303767;33;20006;-80
2021/06/06 06:12:54;;;;;;;;;;;16.20;90.30;;;;;;4279216;33;20020;-80
2021/06/06 06:15:22;;;;;;;;;;;16.20;90.30;;;;;;4290317;33;34846;-80
2021/06/06 06:17:49;;;;;;;;;;;16.20;90.40;;;;;;4290522;33;20006;-80
2021/06/06 06:20:19;;;;;;;;;;;16.20;90.40;;;;;;4278093;33;44712;-80
2021/06/06 06:22:47;;;;;;;;;;;16.20;90.40;;;;;;4303144;33;43636;-80
2021/06/06 06:25:15;;;;;;;;;;;16.20;90.30;;;;;;4291213;33;20028;-80
2021/06/06 06:27:42;;;;;;;;;;;16.20;90.70;;;;;;4291572;33;20103;-80
2021/06/06 06:30:11;;;;;;;;;;;16.20;90.40;;;;;;4290921;33;20030;-80
2021/06/06 06:32:42;;;;;;;;;;;16.20;90.40;;;;;;4303534;33;20017;-80
2021/06/06 06:35:12;;;;;;;;;;;16.20;90.40;;;;;;4303852;33;20014;-79
2021/06/06 06:37:40;;;;;;;;;;;16.20;90.40;;;;;;4304499;33;20392;-80
2021/06/06 06:40:09;;;;;;;;;;;16.20;90.40;;;;;;4302990;33;29334;-80
2021/06/06 06:42:39;;;;;;;;;;;16.20;90.40;;;;;;4290970;33;20010;-80
2021/06/06 06:45:17;;;;;;;;;;;16.20;90.40;;;;;;4304067;33;20006;-80
2021/06/06 06:47:45;;;;;;;;;;;16.20;90.40;;;;;;4289421;33;44683;-80
2021/06/06 06:50:13;;;;;;;;;;;16.20;90.50;;;;;;4302934;33;43664;-80
2021/06/06 06:52:40;;;;;;;;;;;16.20;90.50;;;;;;4302783;33;43688;-80
2021/06/06 06:55:10;;;;;;;;;;;16.20;90.50;;;;;;4301369;33;43992;-79
2021/06/06 06:57:37;;;;;;;;;;;16.20;90.50;;;;;;4291023;33;20007;-79
2021/06/06 07:00:05;;;;;;;;;;;16.20;90.50;;;;;;4290671;33;20045;-80
2021/06/06 07:02:40;;;;;;;;;;;16.30;90.50;;;;;;4298859;33;20030;-79
2021/06/06 07:05:11;;;;;;;;;;;16.20;90.50;;;;;;4302473;33;20072;-79
2021/06/06 07:07:38;;;;;;;;;;;16.20;90.50;;;;;;4290504;33;20040;-80
2021/06/06 07:10:06;;;;;;;;;;;16.20;90.50;;;;;;4303664;33;20396;-79
2021/06/06 07:12:34;;;;;;;;;;;16.20;90.50;;;;;;4289557;33;26859;-80
2021/06/06 07:15:06;;;;;;;;;;;16.30;90.50;;;;;;4301153;33;44320;-80
2021/06/06 07:17:33;;;;;;;;;;;16.30;90.50;;;;;;4302656;33;40222;-80
2021/06/06 07:20:02;;;;;;;;;;;16.30;90.40;;;;;;4302179;33;43669;-80
2021/06/06 07:22:32;;;;;;;;;;;16.20;90.40;;;;;;4289272;33;38737;-79
2021/06/06 07:25:00;;;;;;;;;;;16.20;90.40;;;;;;4302039;33;43632;-80
2021/06/06 07:27:28;;;;;;;;;;;16.20;90.50;;;;;;4290393;33;20029;-80
2021/06/06 07:29:55;;;;;;;;;;;16.20;90.40;;;;;;4303620;33;20054;-80
2021/06/06 07:32:23;;;;;;;;;;;16.20;90.40;;;;;;4301339;33;44239;-80
2021/06/06 07:34:52;;;;;;;;;;;16.20;90.40;;;;;;4290328;33;20006;-80
2021/06/06 07:37:19;;;;;;;;;;;16.20;90.50;;;;;;4302039;33;44703;-80
2021/06/06 07:39:49;;;;;;;;;;;16.30;90.50;;;;;;4302292;33;43662;-80
2021/06/06 07:42:16;;;;;;;;;;;16.20;90.50;;;;;;4288751;33;44616;-80
2021/06/06 07:44:44;;;;;;;;;;;16.30;90.50;;;;;;4302200;33;43392;-80
2021/06/06 07:47:14;;;;;;;;;;;16.30;90.50;;;;;;4278537;33;20074;-80
2021/06/06 07:49:43;;;;;;;;;;;16.20;90.50;;;;;;4290341;33;20065;-80
2021/06/06 07:52:11;;;;;;;;;;;16.20;90.40;;;;;;4289983;33;20005;-81
2021/06/06 07:54:39;;;;;;;;;;;16.30;90.50;;;;;;4289831;33;20006;-80
2021/06/06 07:57:18;;;;;;;;;;;16.30;90.50;;;;;;4278538;33;20002;-80
2021/06/06 07:59:46;;;;;;;;;;;16.30;90.50;;;;;;4277874;33;20014;-80
2021/06/06 08:02:13;;;;;;;;;;;16.30;90.50;;;;;;4277908;33;20021;-80
2021/06/06 08:04:41;;;;;;;;;;;16.30;90.50;;;;;;4289860;33;19998;-81
2021/06/06 08:07:11;;;;;;;;;;;16.30;90.40;;;;;;4301882;33;20359;-81
2021/06/06 08:09:44;;;;;;;;;;;16.30;90.40;;;;;;4289758;33;20010;-81
2021/06/06 08:12:12;;;;;;;;;;;16.30;90.50;;;;;;4301622;33;20066;-81
2021/06/06 08:14:42;;;;;;;;;;;16.30;90.50;;;;;;4277853;33;20013;-80
2021/06/06 08:17:09;;;;;;;;;;;16.30;90.50;;;;;;4289629;33;20046;-81
2021/06/06 08:19:37;;;;;;;;;;;16.30;90.50;;;;;;4288723;33;44712;-81
2021/06/06 08:22:07;;;;;;;;;;;16.30;90.50;;;;;;4288639;33;43531;-80
2021/06/06 08:24:34;;;;;;;;;;;16.30;90.40;;;;;;4289791;33;20025;-81
2021/06/06 08:27:01;;;;;;;;;;;16.30;90.40;;;;;;4301821;33;44313;-81
2021/06/06 08:29:28;;;;;;;;;;;16.30;90.40;;;;;;4300770;33;44481;-81
2021/06/06 08:31:55;;;;;;;;;;;16.30;90.40;;;;;;4301211;33;44714;-81
2021/06/06 08:34:22;;;;;;;;;;;16.30;90.40;;;;;;4288215;33;43337;-81
2021/06/06 08:36:50;;;;;;;;;;;16.30;90.50;;;;;;4302736;33;20042;-81
2021/06/06 08:39:21;;;;;;;;;;;16.40;90.50;;;;;;4287900;33;43445;-81
2021/06/06 08:42:08;;;;;;;;;;;16.40;90.40;;;;;;4276362;33;45105;-81
2021/06/06 08:44:42;;;;;;;;;;;16.40;90.40;;;;;;4300751;33;26405;-84
2021/06/06 08:47:12;;;;;;;;;;;16.30;90.40;;;;;;4276368;33;35441;-81
2021/06/06 08:49:46;;;;;;;;;;;16.40;90.50;;;;;;4301521;33;43073;-81
2021/06/06 08:52:23;;;;;;;;;;;16.40;90.50;;;;;;4301647;33;42612;-81
2021/06/06 08:54:53;;;;;;;;;;;16.40;90.50;;;;;;4300313;33;43224;-81
2021/06/06 08:57:24;;;;;;;;;;;16.40;90.40;;;;;;4288701;33;43539;-81
2021/06/06 08:59:54;;;;;;;;;;;16.40;90.40;;;;;;4301325;33;43699;-80
2021/06/06 09:02:25;;;;;;;;;;;16.40;90.40;;;;;;4288389;33;24088;-80
2021/06/06 09:04:53;;;;;;;;;;;16.40;90.40;;;;;;4289189;33;20026;-81
2021/06/06 09:07:51;;;;;;;;;;;16.40;90.40;;;;;;4304573;33;20010;-81
2021/06/06 09:10:21;;;;;;;;;;;16.40;90.40;;;;;;4294346;33;20016;-80
2021/06/06 09:12:48;;;;;;;;;;;16.40;90.40;;;;;;4292262;33;20571;-80
2021/06/06 09:15:20;;;;;;;;;;;16.40;90.40;;;;;;4292088;33;20119;-80
2021/06/06 09:17:50;;;;;;;;;;;16.40;90.40;;;;;;4304384;33;42696;-80
2021/06/06 09:20:29;;;;;;;;;;;16.40;90.40;;;;;;4305405;33;20002;-80
2021/06/06 09:23:08;;;;;;;;;;;16.40;90.40;;;;;;4305017;33;20010;-80
2021/06/06 09:25:38;;;;;;;;;;;16.40;90.40;;;;;;4291819;33;20069;-80
2021/06/06 09:28:17;;;;;;;;;;;16.40;90.40;;;;;;4291682;33;20009;-80
2021/06/06 09:30:44;;;;;;;;;;;16.40;90.30;;;;;;4305164;33;20002;-80
2021/06/06 09:33:14;;;;;;;;;;;16.50;90.30;;;;;;4304097;33;20033;-80
2021/06/06 09:35:50;;;;;;;;;;;16.40;90.30;;;;;;4304514;33;20014;-80
2021/06/06 09:38:36;;;;;;;;;;;16.50;90.40;;;;;;4303510;33;20025;-80
2021/06/06 09:41:15;;;;;;;;;;;16.50;90.40;;;;;;4304582;33;20045;-80
2021/06/06 09:43:44;;;;;;;;;;;16.50;90.30;;;;;;4290976;33;23032;-80
2021/06/06 09:46:18;;;;;;;;;;;16.50;90.30;;;;;;4290970;33;21332;-80
2021/06/06 09:48:53;;;;;;;;;;;16.50;90.40;;;;;;4291539;33;20447;-81
2021/06/06 09:51:30;;;;;;;;;;;16.60;90.30;;;;;;4291949;33;19991;-80
2021/06/06 09:54:08;;;;;;;;;;;16.60;90.30;;;;;;4291424;33;19998;-81
2021/06/06 09:56:35;;;;;;;;;;;16.60;90.30;;;;;;4304412;33;20015;-81
2021/06/06 09:59:26;;;;;;;;;;;16.60;90.30;;;;;;4291407;33;20003;-80
2021/06/06 10:02:11;;;;;;;;;;;16.60;90.30;;;;;;4298679;33;20015;-80
2021/06/06 10:04:44;;;;;;;;;;;16.60;90.30;;;;;;4304612;33;20404;-81
2021/06/06 10:07:28;;;;;;;;;;;16.60;90.30;;;;;;4303832;33;20351;-81
2021/06/06 10:09:56;;;;;;;;;;;16.60;90.30;;;;;;4303102;33;26138;-81
2021/06/06 10:12:31;;;;;;;;;;;16.60;90.30;;;;;;4304343;33;20011;-81
2021/06/06 10:15:19;;;;;;;;;;;16.60;90.30;;;;;;4303979;33;20025;-80
2021/06/06 10:17:51;;;;;;;;;;;16.70;90.30;;;;;;4280445;33;41871;-81
2021/06/06 10:20:24;;;;;;;;;;;16.70;90.30;;;;;;4290923;33;20431;-81
2021/06/06 10:22:57;;;;;;;;;;;16.70;90.30;;;;;;4291126;33;20058;-82
2021/06/06 10:25:34;;;;;;;;;;;16.70;90.30;;;;;;4291820;33;20129;-81
2021/06/06 10:28:06;;;;;;;;;;;16.70;90.30;;;;;;4291862;33;20010;-81
2021/06/06 10:30:41;;;;;;;;;;;16.70;90.30;;;;;;4303789;33;20006;-81
2021/06/06 10:33:15;;;;;;;;;;;16.70;90.30;;;;;;4303850;33;24029;-81
2021/06/06 10:35:43;;;;;;;;;;;16.70;90.20;;;;;;4291012;33;20013;-81
2021/06/06 10:38:14;;;;;;;;;;;16.70;90.20;;;;;;4290696;33;20409;-81
2021/06/06 10:40:44;;;;;;;;;;;16.70;90.20;;;;;;4290301;33;23037;-81
2021/06/06 10:43:32;;;;;;;;;;;16.70;90.20;;;;;;4303370;33;20018;-82
2021/06/06 10:46:11;;;;;;;;;;;16.70;90.20;;;;;;4291175;33;20054;-81
2021/06/06 10:48:46;;;;;;;;;;;16.70;90.20;;;;;;4301928;33;24326;-81
2021/06/06 10:51:32;;;;;;;;;;;16.80;90.20;;;;;;4303802;33;24356;-81
2021/06/06 10:54:01;;;;;;;;;;;16.80;90.20;;;;;;4304080;33;20355;-81
2021/06/06 10:56:31;;;;;;;;;;;16.70;90.10;;;;;;4303296;33;20412;-81
2021/06/06 10:59:06;;;;;;;;;;;16.80;90.10;;;;;;4290848;33;20006;-81
2021/06/06 11:01:42;;;;;;;;;;;16.80;90.00;;;;;;4291331;33;20022;-80
2021/06/06 11:04:14;;;;;;;;;;;16.80;90.00;;;;;;4290400;33;20024;-81
2021/06/06 11:06:45;;;;;;;;;;;16.80;89.90;;;;;;4303748;33;20014;-81
2021/06/06 11:09:23;;;;;;;;;;;16.80;89.90;;;;;;4279071;33;20041;-81
2021/06/06 11:11:55;;;;;;;;;;;16.80;89.90;;;;;;4303401;33;20919;-80
2021/06/06 11:14:30;;;;;;;;;;;16.80;89.70;;;;;;4301837;33;20048;-81
2021/06/06 11:17:19;;;;;;;;;;;16.90;89.70;;;;;;4303691;33;20077;-80
2021/06/06 11:19:46;;;;;;;;;;;16.80;89.70;;;;;;4293933;33;20033;-80
2021/06/06 11:22:21;;;;;;;;;;;16.90;90.00;;;;;;4303261;33;20002;-80
2021/06/06 11:24:48;;;;;;;;;;;16.80;89.70;;;;;;4290380;33;20062;-80
2021/06/06 11:27:26;;;;;;;;;;;16.80;89.70;;;;;;4290869;33;20020;-80
2021/06/06 11:29:56;;;;;;;;;;;16.80;89.60;;;;;;4302828;33;20015;-80
2021/06/06 11:32:24;;;;;;;;;;;16.90;89.60;;;;;;4278198;33;20001;-80
2021/06/06 11:34:51;;;;;;;;;;;16.90;89.70;;;;;;4290285;33;20017;-80
2021/06/06 11:37:39;;;;;;;;;;;16.90;89.60;;;;;;4289837;33;20062;-80
2021/06/06 11:40:09;;;;;;;;;;;16.90;89.50;;;;;;4302756;33;20058;-80
2021/06/06 11:42:41;;;;;;;;;;;16.90;89.40;;;;;;4290150;33;20343;-80
2021/06/06 11:45:18;;;;;;;;;;;16.90;89.40;;;;;;4278044;33;20083;-80
2021/06/06 11:47:48;;;;;;;;;;;16.90;89.30;;;;;;4290339;33;20024;-80
2021/06/06 11:50:53;;;;;;;;;;;16.90;89.30;;;;;;4301865;33;20434;-80
2021/06/06 11:53:23;;;;;;;;;;;17.00;89.30;;;;;;4232336;33;20019;-80
2021/06/06 11:55:54;;;;;;;;;;;16.90;89.20;;;;;;4293409;33;20328;-79
2021/06/06 11:58:25;;;;;;;;;;;17.00;89.20;;;;;;4303374;33;20061;-79
2021/06/06 12:00:56;;;;;;;;;;;17.00;89.10;;;;;;4301802;33;45699;-79
2021/06/06 12:03:23;;;;;;;;;;;17.00;89.00;;;;;;4301498;33;43232;-79
2021/06/06 12:05:50;;;;;;;;;;;17.00;89.00;;;;;;4300924;33;44686;-79
2021/06/06 12:08:18;;;;;;;;;;;17.00;89.00;;;;;;4300450;33;40617;-79
2021/06/06 12:10:53;;;;;;;;;;;17.00;89.00;;;;;;4302034;33;26810;-79
2021/06/06 12:13:26;;;;;;;;;;;17.00;89.00;;;;;;4288415;33;43652;-79
2021/06/06 12:16:13;;;;;;;;;;;17.00;88.90;;;;;;4290102;33;20049;-79
2021/06/06 12:18:43;;;;;;;;;;;17.00;88.90;;;;;;4301860;33;40858;-79
2021/06/06 12:21:13;;;;;;;;;;;17.10;88.90;;;;;;4288790;33;25414;-79
2021/06/06 12:23:42;;;;;;;;;;;17.10;88.90;;;;;;4300743;33;44683;-79
2021/06/06 12:26:09;;;;;;;;;;;17.10;88.80;;;;;;4301938;33;40214;-79
2021/06/06 12:28:39;;;;;;;;;;;17.10;88.80;;;;;;4302465;33;20018;-79
2021/06/06 12:31:07;;;;;;;;;;;17.10;88.80;;;;;;4288595;33;42987;-79
2021/06/06 12:33:36;;;;;;;;;;;17.10;88.80;;;;;;4301403;33;43090;-79
2021/06/06 12:36:06;;;;;;;;;;;17.10;88.80;;;;;;4302441;33;20053;-78
2021/06/06 12:38:33;;;;;;;;;;;17.10;88.70;;;;;;4301342;33;44621;-79
2021/06/06 12:41:02;;;;;;;;;;;17.10;88.70;;;;;;4301493;33;43661;-79
2021/06/06 12:43:30;;;;;;;;;;;17.10;88.70;;;;;;4301702;33;41651;-79
2021/06/06 12:46:01;;;;;;;;;;;17.20;88.70;;;;;;4301566;33;43587;-79
2021/06/06 12:48:32;;;;;;;;;;;17.20;88.70;;;;;;4302861;33;20065;-79
2021/06/06 12:51:11;;;;;;;;;;;17.20;88.70;;;;;;4288468;33;45030;-79
2021/06/06 12:53:38;;;;;;;;;;;17.20;88.60;;;;;;4288079;33;45056;-79
2021/06/06 12:56:24;;;;;;;;;;;17.20;88.70;;;;;;4288497;33;43620;-79
2021/06/06 12:59:02;;;;;;;;;;;17.20;88.60;;;;;;4301160;33;42625;-79
2021/06/06 13:01:30;;;;;;;;;;;17.20;88.70;;;;;;4302000;33;20006;-80
2021/06/06 13:04:08;;;;;;;;;;;17.20;88.60;;;;;;4288495;33;24672;-79
2021/06/06 13:06:37;;;;;;;;;;;17.20;88.50;;;;;;4289476;33;20373;-79
2021/06/06 13:09:13;;;;;;;;;;;17.30;88.60;;;;;;4289057;33;20434;-79
2021/06/06 13:11:41;;;;;;;;;;;17.30;88.60;;;;;;4302129;33;22084;-79
2021/06/06 13:14:21;;;;;;;;;;;17.20;88.60;;;;;;4301087;33;20355;-79
2021/06/06 13:16:54;;;;;;;;;;;17.30;88.60;;;;;;4289272;33;20479;-79
2021/06/06 13:19:24;;;;;;;;;;;17.30;88.60;;;;;;4302216;33;20395;-79
2021/06/06 13:21:57;;;;;;;;;;;17.30;88.60;;;;;;4302171;33;20411;-79
2021/06/06 13:24:31;;;;;;;;;;;17.30;88.70;;;;;;4302262;33;20010;-79
2021/06/06 13:27:05;;;;;;;;;;;17.40;88.70;;;;;;4302014;33;22593;-79
2021/06/06 13:29:32;;;;;;;;;;;17.40;88.70;;;;;;4289225;33;19999;-79
2021/06/06 13:32:07;;;;;;;;;;;17.40;88.70;;;;;;4301030;33;20006;-79
2021/06/06 13:34:34;;;;;;;;;;;17.40;88.60;;;;;;4302078;33;20014;-79
2021/06/06 13:37:02;;;;;;;;;;;17.40;88.60;;;;;;4302077;33;20010;-79
2021/06/06 13:39:31;;;;;;;;;;;17.40;88.60;;;;;;4289101;33;20466;-79
2021/06/06 13:41:59;;;;;;;;;;;17.40;88.70;;;;;;4289347;33;20002;-79
2021/06/06 13:44:27;;;;;;;;;;;17.50;88.60;;;;;;4289081;33;20048;-79
2021/06/06 13:46:55;;;;;;;;;;;17.50;88.70;;;;;;4289181;33;20018;-79
2021/06/06 13:49:23;;;;;;;;;;;17.50;88.70;;;;;;4288933;33;20021;-79
2021/06/06 13:51:50;;;;;;;;;;;17.50;88.60;;;;;;4302752;33;20016;-79
2021/06/06 13:54:17;;;;;;;;;;;17.50;88.60;;;;;;4291135;33;20011;-79
2021/06/06 13:56:44;;;;;;;;;;;17.50;88.60;;;;;;4290895;33;43333;-79
2021/06/06 13:59:14;;;;;;;;;;;17.50;88.60;;;;;;4303768;33;43628;-79
2021/06/06 14:01:42;;;;;;;;;;;17.60;88.70;;;;;;4303647;33;20029;-79
2021/06/06 14:04:13;;;;;;;;;;;17.60;88.80;;;;;;4303308;33;38858;-79
2021/06/06 14:06:41;;;;;;;;;;;17.60;88.70;;;;;;4290801;33;26222;-79
2021/06/06 14:09:10;;;;;;;;;;;17.60;89.50;;;;;;4303729;33;43271;-79
2021/06/06 14:11:44;;;;;;;;;;;17.60;88.70;;;;;;4303636;33;40368;-79
2021/06/06 14:14:18;;;;;;;;;;;17.60;88.70;;;;;;4290799;33;23991;-79
2021/06/06 14:16:46;;;;;;;;;;;17.70;88.80;;;;;;4290391;33;33484;-79
2021/06/06 14:19:15;;;;;;;;;;;17.70;88.80;;;;;;4303274;33;45031;-79
2021/06/06 14:21:43;;;;;;;;;;;17.70;88.70;;;;;;4303752;33;33614;-79
2021/06/06 14:24:13;;;;;;;;;;;17.70;88.70;;;;;;4303569;33;34802;-79
2021/06/06 14:26:43;;;;;;;;;;;17.80;88.70;;;;;;4303837;33;20033;-79
2021/06/06 14:29:11;;;;;;;;;;;17.80;88.60;;;;;;4290320;33;27715;-79
2021/06/06 14:31:42;;;;;;;;;;;17.80;89.50;;;;;;4303661;33;24281;-79
2021/06/06 14:34:10;;;;;;;;;;;17.80;88.80;;;;;;4302900;33;22181;-79
2021/06/06 14:36:38;;;;;;;;;;;17.80;88.70;;;;;;4291454;33;20026;-79